createdAt,value
2019-05-06T00:02:13.805Z,15.17
2019-05-06T00:05:04.112Z,12.07
2019-05-06T00:10:47.007Z,14.17
2019-05-06T00:13:15.402Z,12.37
2019-05-06T00:16:03.921Z,15.87
2019-05-06T00:18:34.195Z,8.00
2019-05-06T00:21:24.434Z,22.40
2019-05-06T00:27:00.879Z,26.50
2019-05-06T00:29:48.392Z,10.30
2019-05-06T00:34:55.464Z,22.43
2019-05-06T00:37:44.234Z,16.07
2019-05-06T00:40:51.567Z,15.07
2019-05-06T00:43:39.219Z,14.30
2019-05-06T00:46:07.615Z,16.67
2019-05-06T00:48:55.132Z,14.00
2019-05-06T00:52:04.245Z,25.47
2019-05-06T00:55:13.772Z,11.30
2019-05-06T00:57:44.074Z,36.40
2019-05-06T01:00:54.004Z,19.27
2019-05-06T01:03:24.061Z,6.80
2019-05-06T01:06:34.475Z,13.80
2019-05-06T01:12:11.963Z,12.63
2019-05-06T01:17:48.698Z,16.50
2019-05-06T01:20:56.998Z,8.73
2019-05-06T01:23:25.405Z,15.73
2019-05-06T01:25:54.592Z,14.63
2019-05-06T01:28:24.477Z,13.97
2019-05-06T01:31:14.006Z,12.53
2019-05-06T01:36:38.524Z,23.20
2019-05-06T01:39:46.821Z,11.70
2019-05-06T01:42:34.547Z,15.70
2019-05-06T01:45:04.716Z,21.70
2019-05-06T01:47:54.289Z,15.67
2019-05-06T01:50:23.503Z,9.50
2019-05-06T01:53:11.524Z,13.30
2019-05-06T01:58:46.617Z,19.07
2019-05-06T02:01:15.129Z,11.07
2019-05-06T02:04:04.467Z,22.17
2019-05-06T02:09:46.775Z,19.67
2019-05-06T02:12:15.184Z,22.37
2019-05-06T02:14:43.780Z,8.57
2019-05-06T02:17:14.436Z,14.73
2019-05-06T02:25:49.881Z,21.30
2019-05-06T02:28:18.285Z,12.47
2019-05-06T02:31:05.801Z,14.07
2019-05-06T02:36:48.577Z,12.80
2019-05-06T02:39:36.100Z,17.77
2019-05-06T02:42:44.417Z,14.43
2019-05-06T02:45:53.193Z,16.50
2019-05-06T02:54:34.526Z,11.97
2019-05-06T02:57:04.249Z,11.60
2019-05-06T03:04:43.767Z,10.50
2019-05-06T03:10:18.366Z,14.70
2019-05-06T03:12:46.768Z,19.23
2019-05-06T03:15:55.111Z,14.13
2019-05-06T03:18:23.856Z,18.97
2019-05-06T03:21:13.802Z,13.33
2019-05-06T03:26:43.859Z,15.53
2019-05-06T03:29:33.178Z,13.47
2019-05-06T03:32:24.635Z,13.13
2019-05-06T03:35:09.027Z,13.23
2019-05-06T03:37:19.885Z,15.23
2019-05-06T03:39:48.309Z,13.10
2019-05-06T03:45:44.082Z,20.30
2019-05-06T03:48:33.330Z,16.50
2019-05-06T03:51:04.056Z,11.00
2019-05-06T03:54:12.773Z,22.50
2019-05-06T03:57:23.220Z,14.23
2019-05-06T04:00:33.354Z,14.60
2019-05-06T04:05:56.164Z,10.53
2019-05-06T04:08:24.574Z,14.90
2019-05-06T04:11:35.881Z,13.57
2019-05-06T04:17:37.269Z,23.97
2019-05-06T04:20:45.578Z,12.43
2019-05-06T04:23:33.432Z,11.60
2019-05-06T04:26:46.095Z,12.13
2019-05-06T04:29:33.105Z,17.20
2019-05-06T04:32:23.248Z,20.57
2019-05-06T04:38:03.807Z,9.67
2019-05-06T04:41:13.608Z,14.97
2019-05-06T04:43:43.947Z,14.23
2019-05-06T04:46:34.847Z,17.67
2019-05-06T04:49:43.633Z,14.43
2019-05-06T04:54:59.216Z,14.67
2019-05-06T04:57:46.861Z,19.43
2019-05-06T05:00:55.177Z,17.10
2019-05-06T05:03:42.901Z,13.40
2019-05-06T05:06:32.665Z,16.43
2019-05-06T05:09:02.798Z,11.20
2019-05-06T05:14:28.852Z,15.23
2019-05-06T05:20:46.767Z,12.47
2019-05-06T05:23:34.584Z,9.93
2019-05-06T05:26:22.547Z,13.60
2019-05-06T05:32:38.971Z,17.00
2019-05-06T05:35:47.289Z,10.43
2019-05-06T05:38:34.825Z,10.43
2019-05-06T05:41:03.245Z,9.07
2019-05-06T05:46:39.700Z,11.33
2019-05-06T05:55:49.141Z,10.70
2019-05-06T06:02:05.516Z,13.10
2019-05-06T06:04:57.305Z,15.40
2019-05-06T06:07:23.278Z,9.20
2019-05-06T06:10:33.198Z,16.80
2019-05-06T06:16:08.272Z,7.40
2019-05-06T06:18:55.783Z,7.93
2019-05-06T06:22:02.826Z,11.10
2019-05-06T06:24:52.454Z,11.37
2019-05-06T06:27:58.956Z,8.90
2019-05-06T06:31:05.731Z,7.87
2019-05-06T06:33:34.136Z,8.37
2019-05-06T06:36:41.862Z,12.70
2019-05-06T06:41:59.473Z,11.77
2019-05-06T06:44:47.001Z,7.23
2019-05-06T06:47:34.887Z,7.67
2019-05-06T06:56:25.009Z,7.33
2019-05-06T06:59:33.319Z,7.70
2019-05-06T07:10:54.504Z,12.43
2019-05-06T07:13:42.065Z,8.33
2019-05-06T07:16:29.672Z,6.30
2019-05-06T07:18:58.070Z,4.90
2019-05-06T07:21:45.588Z,7.13
2019-05-06T07:24:33.361Z,8.60
2019-05-06T07:27:22.687Z,7.30
2019-05-06T07:29:52.254Z,8.87
2019-05-06T07:32:23.062Z,5.87
2019-05-06T07:34:53.162Z,10.43
2019-05-06T07:40:15.788Z,8.43
2019-05-06T07:45:58.280Z,7.73
2019-05-06T07:51:21.145Z,7.60
2019-05-06T08:00:12.566Z,8.97
2019-05-06T08:02:42.602Z,6.87
2019-05-06T08:05:58.219Z,8.33
2019-05-06T08:08:23.017Z,8.53
2019-05-06T08:10:52.713Z,5.40
2019-05-06T08:13:22.695Z,4.80
2019-05-06T08:19:02.665Z,10.70
2019-05-06T08:24:44.628Z,5.87
2019-05-06T08:27:32.984Z,8.60
2019-05-06T08:30:43.037Z,9.53
2019-05-06T08:33:12.912Z,10.03
2019-05-06T08:41:08.884Z,8.50
2019-05-06T08:43:56.414Z,6.30
2019-05-06T08:47:04.765Z,6.20
2019-05-06T08:57:33.217Z,8.73
2019-05-06T09:02:49.066Z,8.80
2019-05-06T09:05:17.459Z,7.43
2019-05-06T09:08:04.995Z,16.07
2019-05-06T09:10:33.396Z,7.37
2019-05-06T09:13:02.107Z,5.23
2019-05-06T09:15:32.715Z,6.33
2019-05-06T09:20:36.681Z,6.77
2019-05-06T09:23:05.083Z,6.27
2019-05-06T09:28:42.495Z,6.07
2019-05-06T09:31:48.541Z,4.10
2019-05-06T09:34:36.059Z,7.40
2019-05-06T09:37:24.278Z,9.27
2019-05-06T09:39:53.809Z,8.70
2019-05-06T09:42:23.828Z,9.53
2019-05-06T09:44:53.999Z,11.13
2019-05-06T09:50:53.517Z,7.73
2019-05-06T09:54:03.263Z,4.93
2019-05-06T09:57:09.912Z,6.03
2019-05-06T09:59:57.562Z,4.67
2019-05-06T10:02:45.084Z,4.90
2019-05-06T10:05:53.397Z,7.10
2019-05-06T10:08:41.047Z,4.30
2019-05-06T10:13:56.896Z,11.20
2019-05-06T10:16:25.298Z,6.07
2019-05-06T10:19:13.391Z,3.83
2019-05-06T10:24:52.150Z,4.73
2019-05-06T10:27:22.596Z,10.20
2019-05-06T10:32:47.923Z,5.33
2019-05-06T10:35:56.232Z,5.77
2019-05-06T10:39:04.872Z,7.03
2019-05-06T10:42:13.579Z,6.73
2019-05-06T10:45:23.217Z,3.97
2019-05-06T10:48:12.757Z,3.37
2019-05-06T10:51:00.111Z,11.27
2019-05-06T10:53:28.506Z,2.93
2019-05-06T10:56:49.937Z,6.00
2019-05-06T10:59:24.616Z,4.60
2019-05-06T11:05:20.831Z,4.83
2019-05-06T11:07:49.227Z,4.70
2019-05-06T11:10:41.183Z,3.30
2019-05-06T11:16:17.044Z,5.33
2019-05-06T11:18:45.691Z,3.40
2019-05-06T11:21:14.089Z,9.37
2019-05-06T11:23:42.482Z,3.27
2019-05-06T11:26:13.005Z,6.10
2019-05-06T11:31:55.207Z,8.00
2019-05-06T11:39:53.993Z,4.70
2019-05-06T11:42:43.720Z,5.67
2019-05-06T11:45:52.132Z,4.57
2019-05-06T11:48:22.333Z,4.40
2019-05-06T11:53:32.604Z,6.70
2019-05-06T11:56:48.700Z,9.10
2019-05-06T12:02:19.069Z,5.07
2019-05-06T12:04:47.487Z,6.57
2019-05-06T12:07:35.011Z,6.20
2019-05-06T12:10:22.664Z,4.47
2019-05-06T12:15:38.517Z,5.40
2019-05-06T12:18:26.155Z,8.63
2019-05-06T12:23:48.207Z,5.93
2019-05-06T12:26:16.601Z,4.97
2019-05-06T12:28:45.002Z,4.13
2019-05-06T12:31:33.012Z,4.70
2019-05-06T12:34:02.944Z,3.80
2019-05-06T12:36:33.077Z,4.10
2019-05-06T12:39:23.023Z,5.17
2019-05-06T12:42:23.094Z,4.67
2019-05-06T12:52:36.476Z,4.03
2019-05-06T12:55:45.041Z,4.50
2019-05-06T12:58:13.863Z,4.70
2019-05-06T13:00:44.940Z,6.30
2019-05-06T13:03:13.702Z,4.40
2019-05-06T13:06:07.266Z,4.73
2019-05-06T13:08:49.849Z,1.70
2019-05-06T13:11:20.866Z,1.40
2019-05-06T13:16:36.707Z,1.30
2019-05-06T13:19:24.420Z,1.50
2019-05-06T13:21:52.824Z,1.20
2019-05-06T13:24:40.462Z,2.20
2019-05-06T13:29:47.769Z,1.23
2019-05-06T13:32:35.295Z,0.90
2019-05-06T13:37:57.862Z,1.40
2019-05-06T13:40:53.842Z,0.90
2019-05-06T13:43:34.617Z,1.80
2019-05-06T13:49:17.069Z,5.47
2019-05-06T13:52:05.017Z,1.10
2019-05-06T13:54:53.087Z,4.93
2019-05-06T13:57:21.561Z,1.60
2019-05-06T14:00:09.244Z,1.27
2019-05-06T14:02:56.761Z,4.03
2019-05-06T14:08:19.615Z,3.77
2019-05-06T14:10:56.679Z,1.80
2019-05-06T14:13:18.165Z,1.53
2019-05-06T14:21:26.731Z,1.90
2019-05-06T14:27:03.345Z,1.83
2019-05-06T14:29:53.017Z,1.90
2019-05-06T14:32:40.109Z,2.60
2019-05-06T14:35:48.417Z,2.33
2019-05-06T14:38:35.949Z,3.17
2019-05-06T14:41:27.154Z,2.07
2019-05-06T14:44:12.850Z,2.00
2019-05-06T14:47:00.382Z,3.27
2019-05-06T14:52:35.342Z,1.97
2019-05-06T14:55:43.814Z,2.07
2019-05-06T15:03:42.953Z,1.97
2019-05-06T15:09:17.842Z,2.50
2019-05-06T15:11:46.248Z,2.20
2019-05-06T15:14:14.648Z,2.20
2019-05-06T15:17:02.415Z,2.07
2019-05-06T15:19:30.843Z,4.53
2019-05-06T15:22:18.589Z,2.97
2019-05-06T15:25:06.104Z,2.93
2019-05-06T15:27:53.756Z,3.83
2019-05-06T15:31:03.248Z,5.30
2019-05-06T15:33:52.889Z,2.63
2019-05-06T15:36:40.552Z,2.20
2019-05-06T15:39:28.201Z,3.63
2019-05-06T15:42:15.725Z,3.03
2019-05-06T15:45:03.243Z,4.93
2019-05-06T15:47:52.341Z,7.60
2019-05-06T15:50:43.263Z,6.73
2019-05-06T15:53:30.105Z,2.90
2019-05-06T15:55:58.505Z,2.53
2019-05-06T15:58:46.167Z,5.77
2019-05-06T16:01:34.378Z,4.70
2019-05-06T16:04:23.202Z,5.70
2019-05-06T16:06:52.856Z,3.67
2019-05-06T16:09:23.459Z,2.50
2019-05-06T16:11:53.434Z,2.87
2019-05-06T16:14:23.032Z,3.00
2019-05-06T16:17:12.321Z,1.83
2019-05-06T16:19:42.722Z,2.17
2019-05-06T16:22:11.427Z,3.67
2019-05-06T16:24:58.962Z,2.37
2019-05-06T16:27:27.360Z,2.23
2019-05-06T16:29:55.771Z,3.20
2019-05-06T16:32:43.580Z,2.77
2019-05-06T16:35:32.291Z,2.27
2019-05-06T16:38:02.349Z,2.67
2019-05-06T16:40:45.396Z,2.33
2019-05-06T16:45:48.107Z,6.83
2019-05-06T16:48:35.857Z,2.30
2019-05-06T16:51:23.500Z,2.57
2019-05-06T16:53:52.563Z,4.50
2019-05-06T16:59:11.111Z,3.40
2019-05-06T17:04:47.719Z,2.30
2019-05-06T17:07:35.364Z,2.90
2019-05-06T17:10:43.675Z,3.70
2019-05-06T17:13:33.501Z,2.93
2019-05-06T17:16:02.516Z,3.77
2019-05-06T17:21:19.401Z,5.23
2019-05-06T17:23:47.807Z,4.53
2019-05-06T17:26:35.541Z,4.50
2019-05-06T17:29:43.865Z,3.17
2019-05-06T17:35:39.712Z,6.10
2019-05-06T17:38:27.220Z,2.80
2019-05-06T17:41:14.813Z,6.10
2019-05-06T17:57:32.782Z,2.43
2019-05-06T18:02:55.912Z,2.70
2019-05-06T18:05:43.428Z,4.53
2019-05-06T18:08:33.338Z,3.40
2019-05-06T18:11:01.185Z,3.90
2019-05-06T18:13:29.580Z,3.17
2019-05-06T18:16:17.231Z,3.00
2019-05-06T18:19:04.874Z,4.27
2019-05-06T18:27:02.620Z,4.30
2019-05-06T18:29:33.432Z,5.93
2019-05-06T18:32:23.402Z,4.20
2019-05-06T18:34:52.772Z,4.27
2019-05-06T18:37:42.644Z,6.97
2019-05-06T18:40:52.847Z,4.80
2019-05-06T18:43:42.056Z,5.27
2019-05-06T18:46:29.394Z,7.10
2019-05-06T18:49:17.038Z,5.70
2019-05-06T18:54:59.012Z,6.23
2019-05-06T18:57:27.402Z,6.13
2019-05-06T19:00:15.051Z,11.30
2019-05-06T19:05:50.005Z,4.87
2019-05-06T19:08:37.535Z,5.03
2019-05-06T19:11:25.304Z,6.30
2019-05-06T19:13:53.716Z,5.90
2019-05-06T19:16:22.408Z,8.30
2019-05-06T19:21:58.920Z,5.17
2019-05-06T19:24:27.315Z,6.00
2019-05-06T19:29:29.515Z,5.10
2019-05-06T19:31:57.936Z,5.00
2019-05-06T19:34:26.384Z,5.90
2019-05-06T19:37:14.033Z,5.87
2019-05-06T19:40:22.994Z,10.50
2019-05-06T19:45:42.176Z,5.07
2019-05-06T19:48:29.140Z,6.13
2019-05-06T19:53:32.354Z,3.90
2019-05-06T19:56:02.744Z,4.10
2019-05-06T19:58:33.991Z,3.33
2019-05-06T20:01:42.962Z,2.60
2019-05-06T20:07:22.734Z,3.80
2019-05-06T20:10:29.055Z,3.40
2019-05-06T20:15:46.531Z,4.47
2019-05-06T20:21:02.371Z,3.80
2019-05-06T20:23:52.467Z,2.30
2019-05-06T20:26:21.953Z,3.43
2019-05-06T20:29:09.738Z,2.50
2019-05-06T20:34:32.104Z,5.83
2019-05-06T20:37:02.049Z,2.00
2019-05-06T20:39:49.979Z,2.13
2019-05-06T20:45:53.321Z,2.10
2019-05-06T20:51:49.029Z,2.10
2019-05-06T20:59:39.057Z,3.27
2019-05-06T21:04:43.193Z,3.40
2019-05-06T21:07:12.422Z,3.23
2019-05-06T21:10:02.197Z,3.73
2019-05-06T21:12:50.468Z,3.27
2019-05-06T21:18:27.017Z,2.87
2019-05-06T21:24:02.207Z,3.53
2019-05-06T21:26:49.844Z,5.60
2019-05-06T21:29:18.223Z,4.47
2019-05-06T21:32:05.902Z,3.00
2019-05-06T21:34:34.262Z,5.17
2019-05-06T21:37:22.871Z,5.70
2019-05-06T21:39:52.960Z,5.53
2019-05-06T21:45:15.078Z,5.40
2019-05-06T21:48:02.952Z,5.07
2019-05-06T21:50:33.058Z,5.60
2019-05-06T21:55:56.538Z,5.63
2019-05-06T22:06:45.644Z,7.83
2019-05-06T22:12:24.539Z,7.57
2019-05-06T22:14:53.468Z,10.03
2019-05-06T22:17:22.566Z,7.53
2019-05-06T22:19:52.488Z,7.50
2019-05-06T22:27:36.179Z,9.50
2019-05-06T22:30:44.495Z,8.63
2019-05-06T22:35:47.244Z,9.17
2019-05-06T22:38:34.912Z,8.53
2019-05-06T22:41:23.049Z,8.73
2019-05-06T22:43:53.242Z,7.90
2019-05-06T22:47:02.842Z,8.83
2019-05-06T22:55:03.748Z,11.10
2019-05-06T22:57:30.058Z,11.07
2019-05-06T22:59:58.490Z,11.43
2019-05-06T23:05:15.950Z,11.73
2019-05-06T23:08:03.637Z,9.40
2019-05-06T23:10:33.736Z,12.20
2019-05-06T23:13:03.087Z,13.60
2019-05-06T23:15:52.397Z,14.13
2019-05-06T23:23:30.124Z,19.97
2019-05-06T23:26:17.639Z,17.17
2019-05-06T23:29:05.312Z,12.70
2019-05-06T23:31:52.961Z,13.33
2019-05-06T23:34:40.629Z,16.17
2019-05-06T23:37:48.963Z,13.80
2019-05-06T23:40:55.951Z,13.77
2019-05-06T23:44:02.966Z,13.20
2019-05-06T23:47:09.934Z,16.70
2019-05-06T23:50:16.930Z,14.83
2019-05-06T23:53:23.917Z,13.37
2019-05-06T23:56:32.654Z,15.83
2019-05-06T23:59:01.046Z,16.60
